Terminal Aerodrome Forecast
Issued by NWS

Home | Current Version | Previous Version | Text Only | Print | Product List | Glossary On
Versions: 1 2 3 4 5 6 7 8 9 10 11 12 13 14 15 16 17 18 19 20 21 22 23 24 25 26 27 28 29 30 31 32 33 34 35 36 37 38 39 40
000
FTUS45 KBOU 210812 AAA
TAFBJC
TAF AMD
KBJC 210812Z 2108/2206 VRB05KT P6SM SKC
     FM211500 16006KT P6SM FEW220
     FM212000 03009KT P6SM FEW100 SCT220
     FM220000 35012G18KT P6SM SCT060 OVC100 PROB30 2202/2206 -SHRA
      BKN040=

USA.gov is the U.S. government's official web portal to all federal, state and local government web resources and services.